»·PEaware :: N902SQ C83-KSLC

N902SQ :: C83-KSLC

FLIGHT INFORMATION

Flight Status: Arrived
Operator: Privately registered:
United States
More flights under this callsign
Pilot: Gabor H. (24209)
Aircraft: SOCATA TBM-900
(TBM9)
More flights by this aircraft type
Origin: C83 Byron
United States
Destination: KSLC Salt Lake City Intl
United States
More flights between these airports :: More routes between these airports
Route: MELTS J84 MVA J158 SPRUZ J154 BVL BVL2
File this flight plan on PilotEdge
Remarks:
Altitude:
(Current/Filed)
31,000ft
Speed:
(Current/Filed)
310kts
Departed: 04-Nov-23 11:52 AM
Arrived: 04-Nov-23 01:32 PM
Distance/Time
Traveled:
482nm/1:40
Distance/Time
To Go:
Arrived

Flight Plot

Page will automatically refresh every two minutes.

Flight plan parsing failed; only flown route is shown


Map Options




Map Legend


Flown Route
Filed Route
Departure Airport
Arrival Airport
Navaid (VOR, NDB)
Fix

Horizontal Profiles

Position Reports

Time Latitude Longitude Heading Altitude Ground
Speed
04-Nov-23 11:39 37.830482 -121.627952 46 57ft 0kts
04-Nov-23 11:40 37.830482 -121.627952 46 57ft 0kts
04-Nov-23 11:41 37.830489 -121.627944 45 57ft 0kts
04-Nov-23 11:42 37.830489 -121.627944 45 57ft 0kts
04-Nov-23 11:43 37.830489 -121.627944 44 57ft 0kts
04-Nov-23 11:44 37.830489 -121.627944 44 57ft 0kts
04-Nov-23 11:45 37.830489 -121.627944 44 57ft 0kts
04-Nov-23 11:46 37.830489 -121.627944 44 57ft 0kts
04-Nov-23 11:47 37.830489 -121.627944 44 57ft 0kts
04-Nov-23 11:48 37.830942 -121.628283 318 58ft 7kts
04-Nov-23 11:49 37.833075 -121.629860 313 56ft 9kts
04-Nov-23 11:50 37.834955 -121.631681 2 64ft 9kts
04-Nov-23 11:51 37.821983 -121.614756 135 473ft 129kts
04-Nov-23 11:52 37.813660 -121.576362 68 2540ft 133kts
04-Nov-23 11:53 37.828201 -121.531989 66 4385ft 142kts
04-Nov-23 11:54 37.843640 -121.485184 66 6358ft 147kts
04-Nov-23 11:55 37.859512 -121.436888 67 8339ft 153kts
04-Nov-23 11:56 37.876087 -121.386296 67 10397ft 162kts
04-Nov-23 11:57 37.893880 -121.331930 67 12453ft 174kts
04-Nov-23 11:58 37.912752 -121.274180 67 14561ft 182kts
04-Nov-23 11:59 37.932452 -121.213714 67 16510ft 191kts
04-Nov-23 12:00 37.953143 -121.150071 67 18377ft 199kts
04-Nov-23 12:01 37.974639 -121.083716 66 20437ft 208kts
04-Nov-23 12:02 37.997090 -121.014400 64 22479ft 216kts
04-Nov-23 12:03 38.020615 -120.941597 65 24255ft 230kts
04-Nov-23 12:04 38.045046 -120.865777 64 25980ft 235kts
04-Nov-23 12:05 38.070179 -120.787491 63 27757ft 244kts
04-Nov-23 12:06 38.095849 -120.707380 63 29544ft 248kts
04-Nov-23 12:07 38.122042 -120.625182 60 31023ft 260kts
04-Nov-23 12:08 38.152457 -120.530037 62 31203ft 318kts
04-Nov-23 12:09 38.178152 -120.416422 73 31182ft 346kts
04-Nov-23 12:10 38.199121 -120.295086 74 31166ft 356kts
04-Nov-23 12:11 38.220315 -120.171607 74 31185ft 358kts
04-Nov-23 12:12 38.241440 -120.047801 73 31249ft 358kts
04-Nov-23 12:13 38.262465 -119.923643 74 31286ft 360kts
04-Nov-23 12:14 38.283471 -119.798960 74 31286ft 361kts
04-Nov-23 12:15 38.304338 -119.674125 74 31287ft 361kts
04-Nov-23 12:16 38.325158 -119.548701 74 31288ft 361kts
04-Nov-23 12:17 38.345776 -119.423702 74 31266ft 362kts
04-Nov-23 12:18 38.366405 -119.297626 75 31218ft 362kts
04-Nov-23 12:19 38.386760 -119.172341 75 31207ft 360kts
04-Nov-23 12:20 38.406873 -119.047733 75 31210ft 359kts
04-Nov-23 12:21 38.426792 -118.923330 75 31211ft 358kts
04-Nov-23 12:22 38.446561 -118.799139 75 31213ft 357kts
04-Nov-23 12:23 38.466078 -118.675557 76 31212ft 356kts
04-Nov-23 12:24 38.485456 -118.551953 75 31215ft 355kts
04-Nov-23 12:25 38.504724 -118.428201 75 31215ft 354kts
04-Nov-23 12:26 38.523767 -118.304976 76 31208ft 353kts
04-Nov-23 12:27 38.542588 -118.182193 76 31208ft 352kts
04-Nov-23 12:28 38.561441 -118.059980 75 31210ft 351kts
04-Nov-23 12:29 38.614446 -117.962236 39 31212ft 337kts
04-Nov-23 12:30 38.678107 -117.874371 42 31210ft 339kts
04-Nov-23 12:31 38.741617 -117.784807 42 31226ft 339kts
04-Nov-23 12:32 38.804848 -117.695365 42 31253ft 339kts
04-Nov-23 12:33 38.868230 -117.605460 42 31274ft 340kts
04-Nov-23 12:34 38.931505 -117.515443 43 31278ft 341kts
04-Nov-23 12:35 38.995134 -117.424661 43 31270ft 343kts
04-Nov-23 12:36 39.059040 -117.333250 43 31263ft 343kts
04-Nov-23 12:37 39.122173 -117.242621 44 31263ft 343kts
04-Nov-23 12:38 39.185726 -117.151176 44 31264ft 343kts
04-Nov-23 12:39 39.249265 -117.059462 44 31265ft 344kts
04-Nov-23 12:40 39.312955 -116.967233 44 31265ft 344kts
04-Nov-23 12:41 39.376653 -116.874742 44 31267ft 345kts
04-Nov-23 12:42 39.440162 -116.782259 44 31266ft 345kts
04-Nov-23 12:43 39.503786 -116.689325 44 31267ft 345kts
04-Nov-23 12:44 39.567411 -116.596095 44 31268ft 346kts
04-Nov-23 12:45 39.631089 -116.502521 44 31281ft 346kts
04-Nov-23 12:46 39.694686 -116.408781 44 31288ft 347kts
04-Nov-23 12:47 39.758422 -116.314527 45 31281ft 347kts
04-Nov-23 12:48 39.822078 -116.220087 45 31282ft 347kts
04-Nov-23 12:49 39.885550 -116.125619 45 31282ft 347kts
04-Nov-23 12:50 39.949194 -116.030620 45 31248ft 348kts
04-Nov-23 12:51 40.012682 -115.935557 45 31258ft 348kts
04-Nov-23 12:52 40.076277 -115.840035 45 31258ft 348kts
04-Nov-23 12:53 40.139708 -115.744462 45 31257ft 348kts
04-Nov-23 12:54 40.202828 -115.649066 45 31257ft 348kts
04-Nov-23 12:55 40.266082 -115.553169 45 31258ft 348kts
04-Nov-23 12:56 40.329319 -115.456998 45 31259ft 348kts
04-Nov-23 12:57 40.392441 -115.360701 45 31260ft 348kts
04-Nov-23 12:58 40.455375 -115.264401 46 31255ft 348kts
04-Nov-23 12:59 40.518197 -115.167970 46 31254ft 347kts
04-Nov-23 13:00 40.580623 -115.071853 46 31255ft 347kts
04-Nov-23 13:01 40.643231 -114.975155 46 31256ft 347kts
04-Nov-23 13:02 40.684949 -114.862881 86 31251ft 351kts
04-Nov-23 13:03 40.687039 -114.734425 87 31266ft 350kts
04-Nov-23 13:04 40.692590 -114.606339 86 31269ft 350kts
04-Nov-23 13:05 40.698055 -114.478048 86 31241ft 351kts
04-Nov-23 13:06 40.703392 -114.349285 87 31242ft 351kts
04-Nov-23 13:07 40.708557 -114.221526 87 31236ft 349kts
04-Nov-23 13:08 40.713571 -114.093727 87 31236ft 349kts
04-Nov-23 13:09 40.718421 -113.965941 86 31238ft 348kts
04-Nov-23 13:10 40.723252 -113.836355 86 30243ft 368kts
04-Nov-23 13:11 40.726146 -113.697660 90 28253ft 386kts
04-Nov-23 13:12 40.725946 -113.555592 90 26189ft 389kts
04-Nov-23 13:13 40.725601 -113.414267 90 24136ft 384kts
04-Nov-23 13:14 40.725101 -113.275433 91 22107ft 373kts
04-Nov-23 13:15 40.724463 -113.140753 91 20149ft 363kts
04-Nov-23 13:16 40.723679 -113.009469 91 18245ft 353kts
04-Nov-23 13:17 40.722787 -112.882189 91 16399ft 344kts
04-Nov-23 13:18 40.721816 -112.762135 91 15995ft 309kts
04-Nov-23 13:19 40.720802 -112.651435 91 16000ft 299kts
04-Nov-23 13:20 40.719705 -112.541850 91 16020ft 298kts
04-Nov-23 13:21 40.769753 -112.466711 21 14963ft 305kts
04-Nov-23 13:22 40.829052 -112.399279 70 13103ft 286kts
04-Nov-23 13:23 40.853248 -112.304723 71 11295ft 265kts
04-Nov-23 13:24 40.876727 -112.215496 71 9493ft 248kts
04-Nov-23 13:25 40.893146 -112.131083 81 7691ft 233kts
04-Nov-23 13:26 40.899453 -112.051051 91 6451ft 204kts
04-Nov-23 13:27 40.898180 -111.978779 108 5481ft 188kts
04-Nov-23 13:28 40.860478 -111.962109 180 5498ft 154kts
04-Nov-23 13:29 40.821844 -111.962093 180 4727ft 111kts
04-Nov-23 13:30 40.794009 -111.962095 180 4232ft 82kts
04-Nov-23 13:31 40.785770 -111.960263 137 4230ft 15kts
04-Nov-23 13:32 40.781048 -111.960009 180 4230ft 18kts
04-Nov-23 13:33 40.776616 -111.960610 169 4230ft 18kts
04-Nov-23 13:34 40.777502 -111.958879 149 4230ft 4kts
04-Nov-23 13:36 40.777240 -111.958873 180 4230ft 0kts
04-Nov-23 13:37 40.777240 -111.958873 180 4230ft 0kts
04-Nov-23 13:38 40.777240 -111.958873 180 4230ft 0kts
04-Nov-23 13:39 40.777240 -111.958873 180 4230ft 0kts
04-Nov-23 13:40 40.777240 -111.958873 180 4230ft 0kts

Navigation Log

Ident Type
Flight plan parsing failed, navigation log unavailable